CheckWX is a tool to help pilots better visualize weather data.  It is not intended as a substitute for an official pre-flight weather briefing.

22:39:38 UTC

KMUT METAR
Muscatine Municipal Airport
Muscatine, Iowa, USA
Current

25 mins ago

KMUT 162215Z AUTO 31011G20KT 10SM BKN044 11/01 A3008 RMK AO2
Observed
Oct-16 @ 22:15 UTC
Wind
  • 310° at 11 KTS
  • Gusting to 20 KTS
Visibility
10 SM
Flight Rules
VFR
Cloud Levels
  • Broken at 4,400' AGL
Temperature
11°C / 52°F
Dewpoint
C / 34°F
Humidity
50%
Altimeter
30.08" Hg
Pressure
1018.62 hPa
Previous

45 mins ago

KMUT 162155Z AUTO 30011KT 10SM BKN047 11/02 A3008 RMK AO2
Observed
Oct-16 @ 21:55 UTC
Wind
  • 300° at 11 KTS
Visibility
10 SM
Flight Rules
VFR
Cloud Levels
  • Broken at 4,700' AGL
Temperature
11°C / 52°F
Dewpoint
C / 36°F
Humidity
54%
Altimeter
30.08" Hg
Pressure
1018.62 hPa
Previous

1 hour ago

KMUT 162135Z AUTO 32011KT 10SM OVC047 10/02 A3008 RMK AO2
Observed
Oct-16 @ 21:35 UTC
Wind
  • 320° at 11 KTS
Visibility
10 SM
Flight Rules
VFR
Cloud Levels
  • Overcast at 4,700' AGL
Temperature
10°C / 50°F
Dewpoint
C / 36°F
Humidity
58%
Altimeter
30.08" Hg
Pressure
1018.62 hPa